Time;durP1;ratioP1;P1;durP2;ratioP2;P2;SDS_P1;SDS_P2;PMS_P1;PMS_P2;Temp;Humidity;BMP_temperature;BMP_pressure;BME280_temperature;BME280_humidity;BME280_pressure;Samples;Min_cycle;Max_cycle;Signal;HPM_P1;HPM_P2
2024/01/18 00:01:13;;;;;;;44.75;39.92;;;-2.30;99.90;;;;;;5089412;28;20032;-79
2024/01/18 00:03:40;;;;;;;49.00;39.28;;;-2.30;99.90;;;;;;5090898;28;20420;-80
2024/01/18 00:06:07;;;;;;;47.63;40.78;;;-2.30;99.90;;;;;;5082996;28;20044;-79
2024/01/18 00:08:33;;;;;;;52.92;41.35;;;-2.30;99.90;;;;;;5087220;28;20044;-80
2024/01/18 00:11:00;;;;;;;49.90;41.53;;;-2.40;99.90;;;;;;5088120;28;20048;-80
2024/01/18 00:13:25;;;;;;;46.83;39.53;;;-2.40;99.90;;;;;;5073128;28;20036;-79
2024/01/18 00:15:51;;;;;;;44.25;39.58;;;-2.40;99.90;;;;;;5093329;28;20036;-80
2024/01/18 00:18:16;;;;;;;51.13;35.30;;;-2.50;99.90;;;;;;5081912;28;20052;-80
2024/01/18 00:20:42;;;;;;;34.63;29.92;;;-2.40;99.90;;;;;;5082794;28;20036;-80
2024/01/18 00:23:07;;;;;;;36.92;29.27;;;-2.40;99.90;;;;;;5088136;28;20475;-80
2024/01/18 00:25:33;;;;;;;34.63;28.05;;;-2.40;99.90;;;;;;5087734;28;20079;-80
2024/01/18 00:27:59;;;;;;;31.25;26.60;;;-2.40;99.90;;;;;;5081317;28;20063;-80
2024/01/18 00:30:24;;;;;;;8.65;5.78;;;-2.30;99.90;;;;;;5077812;28;20044;-79
2024/01/18 00:32:50;;;;;;;32.53;23.48;;;-2.40;99.90;;;;;;5077579;28;20052;-79
2024/01/18 00:35:15;;;;;;;34.45;26.77;;;-2.40;99.90;;;;;;5087385;28;20047;-80
2024/01/18 00:37:41;;;;;;;34.40;26.08;;;-2.40;99.90;;;;;;5088089;28;20039;-80
2024/01/18 00:40:07;;;;;;;34.58;25.83;;;-2.30;99.90;;;;;;5088040;28;20044;-80
2024/01/18 00:42:34;;;;;;;38.10;27.20;;;-2.40;99.90;;;;;;5083261;28;20036;-80
2024/01/18 00:44:59;;;;;;;35.40;27.98;;;-2.40;99.90;;;;;;5082959;28;20177;-80
2024/01/18 00:47:25;;;;;;;37.10;32.15;;;-2.40;99.90;;;;;;5070604;28;20044;-79
2024/01/18 00:49:50;;;;;;;40.95;30.27;;;-2.40;99.90;;;;;;5057690;28;20202;-80
2024/01/18 00:52:16;;;;;;;37.88;31.98;;;-2.40;99.90;;;;;;5090448;28;20121;-79
2024/01/18 00:54:49;;;;;;;40.17;33.15;;;-2.40;99.90;;;;;;5092687;28;20117;-80
2024/01/18 00:57:26;;;;;;;38.00;31.80;;;-2.50;99.90;;;;;;5085816;28;20051;-80
2024/01/18 00:59:52;;;;;;;40.40;32.45;;;-2.50;99.90;;;;;;5088237;28;20382;-79
2024/01/18 01:02:17;;;;;;;49.80;36.05;;;-2.50;99.90;;;;;;5087530;28;20051;-80
2024/01/18 01:04:43;;;;;;;50.50;37.63;;;-2.60;99.90;;;;;;5087954;28;20043;-79
2024/01/18 01:07:09;;;;;;;42.47;35.53;;;-2.60;99.90;;;;;;5083306;28;20048;-80
2024/01/18 01:09:34;;;;;;;10.50;7.75;;;-2.60;99.90;;;;;;5080532;28;20055;-80
2024/01/18 01:12:00;;;;;;;43.50;35.20;;;-2.70;99.90;;;;;;5076839;28;20055;-79
2024/01/18 01:14:26;;;;;;;44.83;36.47;;;-2.70;99.90;;;;;;5069619;28;20045;-80
2024/01/18 01:16:51;;;;;;;39.00;34.30;;;-2.70;99.90;;;;;;5080810;28;20125;-80
2024/01/18 01:19:17;;;;;;;43.63;35.53;;;-2.70;99.90;;;;;;5073498;28;20047;-80
2024/01/18 01:21:42;;;;;;;46.95;34.80;;;-2.70;99.90;;;;;;5070850;28;20412;-80
2024/01/18 01:24:08;;;;;;;42.33;35.65;;;-2.80;99.90;;;;;;5075863;28;20051;-80
2024/01/18 01:26:33;;;;;;;15.95;5.63;;;-2.70;99.90;;;;;;5079698;28;20044;-80
2024/01/18 01:28:59;;;;;;;40.78;35.30;;;-2.80;99.90;;;;;;5084425;28;20056;-80
2024/01/18 01:31:25;;;;;;;40.92;33.65;;;-2.80;99.90;;;;;;5075490;28;20051;-80
2024/01/18 01:33:50;;;;;;;41.22;32.13;;;-2.80;99.90;;;;;;5079335;28;20134;-80
2024/01/18 01:36:16;;;;;;;8.93;5.85;;;-2.80;99.90;;;;;;5081943;28;20048;-80
2024/01/18 01:38:41;;;;;;;10.27;6.40;;;-2.90;99.90;;;;;;5079020;28;20051;-80
2024/01/18 01:41:07;;;;;;;36.13;30.60;;;-2.90;99.90;;;;;;5077660;28;20119;-81
2024/01/18 01:43:33;;;;;;;36.20;30.33;;;-2.90;99.90;;;;;;5075133;28;20047;-80
2024/01/18 01:45:58;;;;;;;36.78;28.25;;;-2.90;99.90;;;;;;5072267;28;20049;-80
2024/01/18 01:48:25;;;;;;;30.67;27.13;;;-2.90;99.90;;;;;;5074747;28;20088;-80
2024/01/18 01:50:51;;;;;;;37.63;29.58;;;-2.90;99.90;;;;;;5069568;28;20512;-80
2024/01/18 01:53:19;;;;;;;36.78;29.55;;;-3.00;99.90;;;;;;5077316;28;20048;-80
2024/01/18 01:55:46;;;;;;;32.33;28.85;;;-3.00;99.90;;;;;;5085631;28;20048;-80
2024/01/18 01:58:15;;;;;;;7.57;4.28;;;-3.00;99.90;;;;;;5079442;28;20881;-80
2024/01/18 02:00:41;;;;;;;41.13;28.55;;;-3.00;99.90;;;;;;5073251;28;20462;-80
2024/01/18 02:03:08;;;;;;;34.53;28.70;;;-3.10;99.90;;;;;;5075481;28;20522;-79
2024/01/18 02:05:36;;;;;;;29.98;26.75;;;-3.10;99.90;;;;;;5076663;28;20051;-79
2024/01/18 02:08:02;;;;;;;37.67;30.20;;;-3.10;99.90;;;;;;5072129;28;20741;-80
2024/01/18 02:10:28;;;;;;;34.20;28.38;;;-3.10;99.90;;;;;;5076444;28;20169;-80
2024/01/18 02:12:54;;;;;;;35.22;28.10;;;-3.10;99.90;;;;;;5071903;28;20135;-80
2024/01/18 02:15:20;;;;;;;34.28;29.02;;;-3.10;99.90;;;;;;5090360;28;20075;-79
2024/01/18 02:17:46;;;;;;;36.45;26.63;;;-3.10;99.90;;;;;;5062705;28;20062;-79
2024/01/18 02:20:12;;;;;;;35.92;26.08;;;-3.10;99.90;;;;;;5074765;28;20040;-80
2024/01/18 02:22:44;;;;;;;29.75;26.55;;;-3.10;99.90;;;;;;5062666;28;20101;-81
2024/01/18 02:25:24;;;;;;;33.92;27.27;;;-3.20;99.90;;;;;;5081590;28;20489;-80
2024/01/18 02:27:56;;;;;;;11.50;7.20;;;-3.10;99.90;;;;;;5083257;28;20056;-80
2024/01/18 02:30:21;;;;;;;34.90;25.15;;;-3.20;99.90;;;;;;5079396;28;20094;-80
2024/01/18 02:32:47;;;;;;;29.75;25.73;;;-3.20;99.90;;;;;;5079944;28;20047;-80
2024/01/18 02:35:14;;;;;;;31.15;25.95;;;-3.20;99.90;;;;;;5076966;28;20127;-80
2024/01/18 02:37:39;;;;;;;40.03;27.00;;;-3.30;99.90;;;;;;5081684;28;20094;-79
2024/01/18 02:40:06;;;;;;;28.33;24.58;;;-3.30;99.90;;;;;;5080257;28;20084;-79
2024/01/18 02:42:32;;;;;;;31.85;25.33;;;-3.30;99.90;;;;;;5069325;28;20044;-80
2024/01/18 02:44:58;;;;;;;36.92;25.73;;;-3.30;99.90;;;;;;5075596;28;20051;-80
2024/01/18 02:47:28;;;;;;;38.03;26.48;;;-3.30;99.90;;;;;;5068274;28;20076;-80
2024/01/18 02:49:55;;;;;;;32.13;25.90;;;-3.40;99.90;;;;;;5058816;28;20046;-80
2024/01/18 02:52:21;;;;;;;27.63;23.73;;;-3.40;99.90;;;;;;5082439;28;20113;-80
2024/01/18 02:54:47;;;;;;;27.45;24.65;;;-3.40;99.90;;;;;;5079671;28;20040;-79
2024/01/18 02:57:12;;;;;;;28.77;25.55;;;-3.40;99.90;;;;;;5079502;28;20051;-80
2024/01/18 02:59:38;;;;;;;7.47;3.55;;;-3.40;99.90;;;;;;5083785;28;20145;-79
2024/01/18 03:02:03;;;;;;;30.80;24.65;;;-3.50;99.90;;;;;;5077318;28;20055;-80
2024/01/18 03:04:29;;;;;;;37.17;24.10;;;-3.60;99.90;;;;;;5074301;28;20055;-80
2024/01/18 03:06:54;;;;;;;29.67;22.48;;;-3.50;99.90;;;;;;5080291;28;20035;-79
2024/01/18 03:09:20;;;;;;;29.98;21.92;;;-3.50;99.90;;;;;;5081707;28;20048;-80
2024/01/18 03:11:46;;;;;;;24.15;19.08;;;-3.50;99.90;;;;;;5075275;28;20044;-79
2024/01/18 03:14:12;;;;;;;26.25;20.75;;;-3.50;99.90;;;;;;5070427;28;20083;-80
2024/01/18 03:16:42;;;;;;;27.15;18.27;;;-3.60;99.90;;;;;;5080303;28;20086;-79
2024/01/18 03:19:10;;;;;;;9.23;5.03;;;-3.60;99.90;;;;;;5088534;28;20047;-79
2024/01/18 03:21:35;;;;;;;23.83;18.23;;;-3.60;99.90;;;;;;5084592;28;20497;-80
2024/01/18 03:24:01;;;;;;;23.25;18.50;;;-3.70;99.90;;;;;;5069014;28;20055;-79
2024/01/18 03:26:27;;;;;;;22.65;20.00;;;-3.60;99.90;;;;;;5073467;28;20036;-80
2024/01/18 03:28:52;;;;;;;25.38;17.27;;;-3.60;99.90;;;;;;5084418;28;20048;-79
2024/01/18 03:31:18;;;;;;;26.17;19.00;;;-3.60;99.90;;;;;;5083055;28;20043;-80
2024/01/18 03:33:43;;;;;;;19.67;15.82;;;-3.60;99.90;;;;;;5090462;28;20044;-80
2024/01/18 03:36:10;;;;;;;23.65;17.38;;;-3.60;99.90;;;;;;5082297;28;20048;-79
2024/01/18 03:38:36;;;;;;;17.73;15.55;;;-3.60;99.90;;;;;;5085072;28;20461;-79
2024/01/18 03:41:01;;;;;;;21.08;15.63;;;-3.60;99.90;;;;;;5078276;28;20044;-79
2024/01/18 03:43:27;;;;;;;20.23;15.57;;;-3.60;99.90;;;;;;5083809;28;20047;-80
2024/01/18 03:45:52;;;;;;;20.17;15.18;;;-3.60;99.90;;;;;;5088306;28;20411;-79
2024/01/18 03:48:18;;;;;;;3.17;2.67;;;-3.60;99.90;;;;;;5084964;28;20489;-79
2024/01/18 03:50:44;;;;;;;3.88;2.05;;;-3.60;99.90;;;;;;5077749;28;20052;-79
2024/01/18 03:53:09;;;;;;;6.18;3.05;;;-3.70;99.90;;;;;;5070855;28;20052;-79
2024/01/18 03:55:35;;;;;;;15.52;13.90;;;-3.70;99.90;;;;;;5076284;28;20052;-79
2024/01/18 03:58:00;;;;;;;6.53;3.63;;;-3.70;99.90;;;;;;5082457;28;20736;-79
2024/01/18 04:00:26;;;;;;;17.35;12.68;;;-3.70;99.90;;;;;;5079195;28;20040;-79
2024/01/18 04:02:52;;;;;;;18.77;13.25;;;-3.70;99.90;;;;;;5079416;28;20391;-79
2024/01/18 04:05:17;;;;;;;18.42;13.38;;;-3.70;99.90;;;;;;5067887;28;20614;-79
2024/01/18 04:07:43;;;;;;;14.73;12.75;;;-3.70;99.90;;;;;;5078594;28;20074;-79
2024/01/18 04:10:10;;;;;;;17.17;14.15;;;-3.70;99.90;;;;;;5074524;28;20048;-80
2024/01/18 04:12:36;;;;;;;18.20;13.45;;;-3.70;99.90;;;;;;5072099;28;20081;-79
2024/01/18 04:15:03;;;;;;;27.08;15.23;;;-3.70;99.90;;;;;;5084044;28;20454;-79
2024/01/18 04:17:29;;;;;;;22.25;15.20;;;-3.70;99.90;;;;;;5076691;28;20048;-79
2024/01/18 04:19:55;;;;;;;16.27;14.02;;;-3.70;99.90;;;;;;5072116;28;20044;-79
2024/01/18 04:22:22;;;;;;;3.60;2.85;;;-3.70;99.90;;;;;;5086490;28;20048;-80
2024/01/18 04:24:48;;;;;;;16.38;14.15;;;-3.80;99.90;;;;;;5074837;28;20090;-80
2024/01/18 04:27:16;;;;;;;21.23;13.95;;;-3.80;99.90;;;;;;5073967;28;20076;-79
2024/01/18 04:29:42;;;;;;;22.60;15.38;;;-3.80;99.90;;;;;;5071305;28;20040;-79
2024/01/18 04:32:08;;;;;;;22.48;15.75;;;-3.70;99.90;;;;;;5083168;28;20052;-79
2024/01/18 04:34:33;;;;;;;18.52;13.85;;;-3.70;99.90;;;;;;5068697;28;20079;-80
2024/01/18 04:36:59;;;;;;;20.27;14.68;;;-3.70;99.90;;;;;;5076191;28;20049;-80
2024/01/18 04:39:25;;;;;;;4.93;2.97;;;-3.70;99.90;;;;;;5086369;28;20067;-80
2024/01/18 04:41:51;;;;;;;16.25;12.10;;;-3.70;99.90;;;;;;5083842;28;20059;-80
2024/01/18 04:44:16;;;;;;;17.00;10.85;;;-3.70;99.90;;;;;;5083087;28;20048;-79
2024/01/18 04:46:42;;;;;;;12.68;9.60;;;-3.60;99.90;;;;;;5085610;28;20032;-79
2024/01/18 04:49:08;;;;;;;0.98;0.98;;;-3.50;99.90;;;;;;5076366;28;20071;-80
2024/01/18 04:51:33;;;;;;;15.50;5.90;;;-3.50;99.90;;;;;;5077329;28;20055;-80
2024/01/18 04:53:59;;;;;;;8.23;5.70;;;-3.40;99.90;;;;;;5069919;28;20109;-79
2024/01/18 04:56:26;;;;;;;10.07;4.07;;;-3.40;99.90;;;;;;5070943;28;20687;-79
2024/01/18 04:58:52;;;;;;;8.23;4.40;;;-3.20;99.90;;;;;;5077395;28;20052;-79
2024/01/18 05:01:17;;;;;;;12.10;4.00;;;-3.10;99.90;;;;;;5082625;28;20040;-80
2024/01/18 05:03:45;;;;;;;8.20;4.07;;;-3.10;99.90;;;;;;5078481;28;20051;-79
2024/01/18 05:06:10;;;;;;;7.88;3.83;;;-3.00;99.90;;;;;;5078395;28;20044;-79
2024/01/18 05:08:36;;;;;;;10.15;3.58;;;-3.00;99.90;;;;;;5077722;28;20567;-79
2024/01/18 05:11:01;;;;;;;13.70;4.53;;;-2.90;99.90;;;;;;5070482;28;20044;-79
2024/01/18 05:13:27;;;;;;;8.98;3.75;;;-2.80;99.90;;;;;;5076446;28;20056;-79
2024/01/18 05:15:53;;;;;;;14.50;4.05;;;-2.80;99.90;;;;;;5073294;28;20058;-79
2024/01/18 05:18:19;;;;;;;15.18;4.00;;;-2.80;99.90;;;;;;5053018;28;20494;-79
2024/01/18 05:20:45;;;;;;;7.88;3.63;;;-2.70;99.90;;;;;;5077139;28;20052;-79
2024/01/18 05:23:10;;;;;;;14.70;3.78;;;-2.70;99.90;;;;;;5070613;28;20317;-79
2024/01/18 05:25:36;;;;;;;8.45;3.22;;;-2.70;99.90;;;;;;5072683;28;20044;-79
2024/01/18 05:28:02;;;;;;;7.05;3.97;;;-2.70;99.90;;;;;;5078961;28;20493;-80
2024/01/18 05:30:27;;;;;;;9.25;5.22;;;-2.80;99.90;;;;;;5079502;28;20144;-79
2024/01/18 05:32:57;;;;;;;9.68;5.43;;;-2.80;99.90;;;;;;5074036;28;20516;-79
2024/01/18 05:35:24;;;;;;;9.50;5.35;;;-2.80;99.90;;;;;;5084922;28;20531;-80
2024/01/18 05:37:50;;;;;;;13.48;5.35;;;-2.80;99.90;;;;;;5082372;28;20106;-80
2024/01/18 05:40:16;;;;;;;6.28;4.22;;;-2.80;99.90;;;;;;5075759;28;20044;-79
2024/01/18 05:42:42;;;;;;;10.98;4.45;;;-2.90;99.90;;;;;;5071508;28;20044;-79
2024/01/18 05:45:08;;;;;;;6.25;5.32;;;-2.80;99.90;;;;;;5076271;28;20119;-79
2024/01/18 05:47:34;;;;;;;11.68;5.43;;;-2.90;99.90;;;;;;5077506;28;20048;-79
2024/01/18 05:49:59;;;;;;;9.85;5.05;;;-3.00;99.90;;;;;;5075718;28;20075;-79
2024/01/18 05:52:27;;;;;;;1.48;1.40;;;-3.00;99.90;;;;;;5065988;28;20045;-79
2024/01/18 05:54:53;;;;;;;9.70;6.15;;;-3.10;99.90;;;;;;5082993;28;20132;-79
2024/01/18 05:57:18;;;;;;;10.57;7.22;;;-3.10;99.90;;;;;;5072745;28;20170;-78
2024/01/18 05:59:44;;;;;;;11.48;6.97;;;-3.20;99.90;;;;;;5069186;28;20072;-79
2024/01/18 06:02:09;;;;;;;11.20;8.27;;;-3.20;99.90;;;;;;5066880;28;20041;-78
2024/01/18 06:04:35;;;;;;;13.27;9.13;;;-3.30;99.90;;;;;;5067418;28;20052;-79
2024/01/18 06:07:01;;;;;;;13.68;9.23;;;-3.30;99.90;;;;;;5073976;28;20459;-79
2024/01/18 06:09:26;;;;;;;14.57;9.93;;;-3.30;99.90;;;;;;5086561;28;20512;-79
2024/01/18 06:11:52;;;;;;;13.40;8.68;;;-3.40;99.90;;;;;;5070933;28;20105;-79
2024/01/18 06:14:18;;;;;;;12.52;9.98;;;-3.40;99.90;;;;;;5076530;28;20048;-79
2024/01/18 06:16:44;;;;;;;13.90;10.07;;;-3.40;99.90;;;;;;5070899;28;20060;-79
2024/01/18 06:19:10;;;;;;;11.57;9.73;;;-3.50;99.90;;;;;;5078148;28;20040;-79
2024/01/18 06:21:35;;;;;;;7.93;1.20;;;-3.50;99.90;;;;;;5076397;28;20591;-79
2024/01/18 06:24:01;;;;;;;11.10;8.85;;;-3.50;99.90;;;;;;5070680;28;20131;-79
2024/01/18 06:26:27;;;;;;;11.57;7.38;;;-3.60;99.90;;;;;;5075328;28;20055;-78
2024/01/18 06:28:52;;;;;;;13.35;8.77;;;-3.60;99.90;;;;;;5075559;28;20051;-79
2024/01/18 06:31:19;;;;;;;14.65;8.68;;;-3.60;99.90;;;;;;5073261;28;20048;-79
2024/01/18 06:33:45;;;;;;;8.57;7.18;;;-3.60;99.90;;;;;;5084745;28;20416;-79
2024/01/18 06:36:14;;;;;;;12.88;8.02;;;-3.60;99.90;;;;;;5079595;28;20040;-79
2024/01/18 06:38:40;;;;;;;11.40;7.40;;;-3.70;99.90;;;;;;5083690;28;20047;-79
2024/01/18 06:41:06;;;;;;;11.30;7.40;;;-3.70;99.90;;;;;;5086044;28;20137;-79
2024/01/18 06:43:31;;;;;;;17.77;7.63;;;-3.70;99.90;;;;;;5084985;28;20040;-79
2024/01/18 06:45:57;;;;;;;12.90;7.28;;;-3.70;99.90;;;;;;5085759;28;20131;-79
2024/01/18 06:48:24;;;;;;;9.85;6.85;;;-3.80;99.90;;;;;;5081527;28;20088;-79
2024/01/18 06:50:51;;;;;;;7.80;6.43;;;-3.80;99.90;;;;;;5081799;28;20092;-79
2024/01/18 06:53:16;;;;;;;9.88;6.82;;;-3.80;99.90;;;;;;5078174;28;20501;-78
2024/01/18 06:55:43;;;;;;;8.70;5.43;;;-3.80;99.90;;;;;;5081364;28;20051;-78
2024/01/18 06:58:08;;;;;;;1.50;1.00;;;-3.90;99.90;;;;;;5084892;28;20138;-79
2024/01/18 07:00:34;;;;;;;6.78;4.35;;;-3.90;99.90;;;;;;5058926;28;20055;-80
2024/01/18 07:03:00;;;;;;;15.35;4.38;;;-3.80;99.90;;;;;;5084486;28;20068;-80
2024/01/18 07:05:26;;;;;;;6.35;3.78;;;-3.80;99.90;;;;;;5076441;28;20052;-80
2024/01/18 07:07:51;;;;;;;15.77;3.78;;;-3.70;99.90;;;;;;5077062;28;20498;-80
2024/01/18 07:10:23;;;;;;;9.10;4.13;;;-3.70;99.90;;;;;;5073210;28;20097;-80
2024/01/18 07:12:48;;;;;;;5.88;3.33;;;-3.60;99.90;;;;;;5075228;28;20048;-80
2024/01/18 07:15:14;;;;;;;7.25;3.10;;;-3.50;99.90;;;;;;5086738;28;20797;-80
2024/01/18 07:17:40;;;;;;;3.67;2.47;;;-3.50;99.90;;;;;;5080444;28;20086;-80
2024/01/18 07:20:06;;;;;;;8.02;3.03;;;-3.40;99.90;;;;;;5077830;28;20049;-80
2024/01/18 07:22:32;;;;;;;13.20;2.63;;;-3.30;99.90;;;;;;5075253;28;20049;-79
2024/01/18 07:24:58;;;;;;;6.72;3.08;;;-3.30;99.90;;;;;;5078204;28;20048;-80
2024/01/18 07:27:23;;;;;;;8.05;3.17;;;-3.30;99.90;;;;;;5075896;28;20047;-80
2024/01/18 07:29:49;;;;;;;4.03;2.50;;;-3.20;99.90;;;;;;5080031;28;20078;-80
2024/01/18 07:32:16;;;;;;;7.05;2.67;;;-3.20;99.90;;;;;;5078198;28;20063;-80
2024/01/18 07:34:42;;;;;;;8.68;2.80;;;-3.20;99.90;;;;;;5075985;28;20124;-79
2024/01/18 07:37:08;;;;;;;9.40;3.08;;;-3.10;99.90;;;;;;5075520;28;20135;-80
2024/01/18 07:39:34;;;;;;;1.40;0.55;;;-3.20;99.90;;;;;;5077539;28;20053;-80
2024/01/18 07:42:00;;;;;;;8.43;3.00;;;-3.20;99.90;;;;;;5072612;28;20052;-80
2024/01/18 07:44:27;;;;;;;12.25;3.50;;;-3.20;99.90;;;;;;5080929;28;20039;-79
2024/01/18 07:46:53;;;;;;;8.77;3.10;;;-3.10;99.90;;;;;;5073956;28;20048;-79
2024/01/18 07:49:20;;;;;;;6.85;3.47;;;-3.10;99.90;;;;;;5067861;28;20039;-79
2024/01/18 07:51:46;;;;;;;8.18;3.30;;;-3.10;99.90;;;;;;5072899;28;20048;-79
2024/01/18 07:54:11;;;;;;;7.05;2.90;;;-3.00;99.90;;;;;;5070485;28;20067;-80
2024/01/18 07:56:37;;;;;;;6.18;2.55;;;-3.00;99.90;;;;;;5079283;28;20040;-79
2024/01/18 07:59:03;;;;;;;9.10;2.90;;;-3.00;99.90;;;;;;5068963;28;20076;-79
2024/01/18 08:01:28;;;;;;;8.55;2.92;;;-3.00;99.90;;;;;;5075901;28;20058;-79
2024/01/18 08:03:54;;;;;;;4.03;3.17;;;-3.10;99.90;;;;;;5077916;28;20047;-79
2024/01/18 08:06:19;;;;;;;7.00;2.50;;;-3.10;99.90;;;;;;5072024;28;20072;-79
2024/01/18 08:08:45;;;;;;;7.53;3.42;;;-3.10;99.90;;;;;;5078300;28;20059;-80
2024/01/18 08:11:12;;;;;;;3.00;2.63;;;-3.10;99.90;;;;;;5069010;28;20121;-79
2024/01/18 08:13:43;;;;;;;5.95;2.75;;;-3.10;99.90;;;;;;5076736;28;20048;-80
2024/01/18 08:16:10;;;;;;;6.95;3.33;;;-3.10;99.90;;;;;;5054613;28;20043;-80
2024/01/18 08:18:36;;;;;;;5.25;2.65;;;-3.10;99.90;;;;;;5080654;28;20467;-79
2024/01/18 08:21:05;;;;;;;6.55;3.40;;;-3.00;99.90;;;;;;5068133;28;20044;-79
2024/01/18 08:23:31;;;;;;;7.45;3.30;;;-3.00;99.90;;;;;;5073410;28;20036;-79
2024/01/18 08:25:56;;;;;;;0.38;0.38;;;-3.00;99.90;;;;;;5078113;28;20048;-80
2024/01/18 08:28:22;;;;;;;5.20;3.30;;;-3.00;99.90;;;;;;5078449;28;20053;-80
2024/01/18 08:30:48;;;;;;;4.97;2.92;;;-3.00;99.90;;;;;;5081163;28;20051;-79
2024/01/18 08:33:15;;;;;;;8.65;3.55;;;-3.00;99.90;;;;;;5071353;28;20374;-80
2024/01/18 08:35:40;;;;;;;8.95;4.15;;;-2.90;99.90;;;;;;5079352;28;20051;-79
2024/01/18 08:38:06;;;;;;;9.43;4.88;;;-2.80;99.90;;;;;;5075448;28;20044;-79
2024/01/18 08:40:33;;;;;;;8.13;4.47;;;-2.80;99.90;;;;;;5086390;28;20044;-79
2024/01/18 08:42:59;;;;;;;4.75;3.58;;;-2.80;99.90;;;;;;5073671;28;20111;-80
2024/01/18 08:45:31;;;;;;;7.45;3.88;;;-2.80;99.90;;;;;;5077004;28;20056;-79
2024/01/18 08:47:57;;;;;;;10.38;4.30;;;-2.80;99.90;;;;;;5076261;28;20446;-80
2024/01/18 08:50:23;;;;;;;5.55;3.20;;;-2.80;99.90;;;;;;5073322;28;20036;-79
2024/01/18 08:52:53;;;;;;;11.10;5.43;;;-2.70;99.90;;;;;;5068139;28;20172;-79
2024/01/18 08:55:19;;;;;;;5.85;3.55;;;-2.70;99.90;;;;;;5073811;28;20085;-80
2024/01/18 08:57:45;;;;;;;5.10;3.70;;;-2.70;99.90;;;;;;5082581;28;20042;-80
2024/01/18 09:00:17;;;;;;;7.55;4.13;;;-2.70;99.90;;;;;;5084010;28;20044;-79
2024/01/18 09:02:44;;;;;;;6.82;3.92;;;-2.70;99.90;;;;;;5076938;28;20048;-80
2024/01/18 09:05:10;;;;;;;6.18;3.78;;;-2.60;99.90;;;;;;5075699;28;20222;-79
2024/01/18 09:07:35;;;;;;;5.93;3.25;;;-2.70;99.90;;;;;;5077778;28;20196;-80
2024/01/18 09:10:01;;;;;;;5.72;3.00;;;-2.70;99.90;;;;;;5078908;28;20052;-81
2024/01/18 09:12:26;;;;;;;6.03;3.72;;;-2.60;99.90;;;;;;5077661;28;20501;-80
2024/01/18 09:14:54;;;;;;;6.72;3.50;;;-2.70;99.90;;;;;;5077740;28;20048;-80
2024/01/18 09:17:20;;;;;;;9.30;3.50;;;-2.60;99.90;;;;;;5073940;28;20406;-80
2024/01/18 09:19:47;;;;;;;3.63;1.23;;;-2.60;99.90;;;;;;5079923;28;20094;-80
2024/01/18 09:22:13;;;;;;;0.88;0.88;;;-2.60;99.90;;;;;;5077281;28;20599;-79
2024/01/18 09:24:38;;;;;;;8.25;5.90;;;-2.70;99.90;;;;;;5079274;28;20044;-81
2024/01/18 09:27:04;;;;;;;9.43;5.93;;;-2.60;99.90;;;;;;5075209;28;20044;-81
2024/01/18 09:29:30;;;;;;;10.38;6.53;;;-2.50;99.90;;;;;;5058403;28;20156;-81
2024/01/18 09:31:56;;;;;;;8.98;6.43;;;-2.40;99.90;;;;;;5074752;28;20126;-82
2024/01/18 09:34:21;;;;;;;9.90;6.13;;;-2.30;99.90;;;;;;5068602;28;20056;-82
2024/01/18 09:36:47;;;;;;;8.68;6.03;;;-2.30;99.90;;;;;;5074105;28;20420;-82
2024/01/18 09:39:15;;;;;;;12.75;5.95;;;-2.20;99.90;;;;;;5076072;28;20050;-82
2024/01/18 09:41:42;;;;;;;10.45;6.18;;;-2.10;99.90;;;;;;5077790;28;20424;-80
2024/01/18 09:44:11;;;;;;;8.35;5.25;;;-2.00;99.90;;;;;;5083872;28;20039;-80
2024/01/18 09:46:38;;;;;;;9.82;5.00;;;-1.90;99.90;;;;;;5080000;28;20046;-80
2024/01/18 09:49:07;;;;;;;9.55;5.43;;;-1.80;99.90;;;;;;5074568;28;20044;-79
2024/01/18 09:51:33;;;;;;;9.93;4.07;;;-1.70;99.90;;;;;;5073359;28;20044;-80
2024/01/18 09:54:00;;;;;;;6.47;3.80;;;-1.60;99.90;;;;;;5053660;28;20067;-80
2024/01/18 09:56:35;;;;;;;8.15;4.13;;;-1.40;99.90;;;;;;5087271;28;20036;-83
2024/01/18 09:59:03;;;;;;;6.63;3.53;;;-1.20;99.90;;;;;;5065714;28;20051;-82
2024/01/18 10:01:31;;;;;;;14.02;5.65;;;-1.10;99.90;;;;;;5066241;28;20040;-82
2024/01/18 10:03:57;;;;;;;10.00;5.50;;;-1.00;99.90;;;;;;5068291;28;20063;-82
2024/01/18 10:06:23;;;;;;;7.53;3.85;;;-0.80;99.90;;;;;;5069679;28;20330;-83
2024/01/18 10:08:51;;;;;;;7.55;3.22;;;-0.60;99.90;;;;;;5070203;28;20070;-73
2024/01/18 10:11:16;;;;;;;5.95;3.35;;;-0.50;99.90;;;;;;5076189;28;20052;-73
2024/01/18 10:13:52;;;;;;;8.15;3.67;;;-0.40;99.90;;;;;;5072056;28;20051;-74
2024/01/18 10:16:36;;;;;;;8.18;3.10;;;-0.20;99.90;;;;;;5073153;28;20123;-73
2024/01/18 10:19:03;;;;;;;8.02;3.33;;;0.00;99.90;;;;;;5081997;28;20445;-73
2024/01/18 10:21:31;;;;;;;0.97;0.87;;;0.10;99.90;;;;;;5085777;28;20054;-73
2024/01/18 10:23:57;;;;;;;9.77;3.67;;;0.20;99.90;;;;;;5084057;28;20290;-73
2024/01/18 10:26:28;;;;;;;13.52;3.92;;;0.40;99.90;;;;;;5067457;28;20040;-73
2024/01/18 10:28:54;;;;;;;9.43;3.03;;;0.60;99.90;;;;;;5083711;28;20060;-74
2024/01/18 10:31:20;;;;;;;1.10;0.95;;;0.70;99.90;;;;;;5074389;28;20052;-73
2024/01/18 10:33:49;;;;;;;7.80;3.65;;;0.80;99.90;;;;;;5079629;28;20443;-74
2024/01/18 10:36:15;;;;;;;11.80;4.60;;;1.00;99.90;;;;;;5069417;28;20040;-74
2024/01/18 10:38:41;;;;;;;12.13;4.78;;;1.10;99.90;;;;;;5072291;28;20100;-74
2024/01/18 10:41:13;;;;;;;13.52;4.32;;;1.30;99.90;;;;;;5068894;28;20043;-74
2024/01/18 10:43:39;;;;;;;12.25;4.30;;;1.40;99.90;;;;;;5072170;28;20040;-74
2024/01/18 10:46:05;;;;;;;12.15;4.50;;;1.50;99.90;;;;;;5068659;28;20056;-74
2024/01/18 10:48:32;;;;;;;9.82;3.78;;;1.70;99.90;;;;;;5078326;28;20135;-74
2024/01/18 10:50:58;;;;;;;13.35;4.65;;;1.80;99.90;;;;;;5073951;28;20044;-74
2024/01/18 10:53:25;;;;;;;13.15;4.47;;;1.90;99.90;;;;;;5070995;28;20406;-74
2024/01/18 10:55:52;;;;;;;16.27;4.85;;;2.00;99.90;;;;;;5072282;28;20059;-74
2024/01/18 10:58:18;;;;;;;11.45;3.88;;;2.10;99.90;;;;;;5083856;28;20059;-75
2024/01/18 11:00:46;;;;;;;7.32;2.95;;;2.20;99.90;;;;;;5074418;28;20093;-75
2024/01/18 11:03:14;;;;;;;6.78;3.35;;;2.30;99.90;;;;;;5081663;28;20049;-75
2024/01/18 11:05:41;;;;;;;7.65;3.38;;;2.50;99.90;;;;;;5065485;28;20040;-75
2024/01/18 11:08:08;;;;;;;10.82;3.80;;;2.60;99.90;;;;;;5057000;28;20041;-75
2024/01/18 11:10:34;;;;;;;7.38;3.38;;;2.70;99.90;;;;;;5084076;28;20477;-75
2024/01/18 11:13:00;;;;;;;10.63;3.40;;;2.80;99.90;;;;;;5077321;28;20032;-75
2024/01/18 11:15:26;;;;;;;9.10;3.10;;;2.80;99.90;;;;;;5078994;28;20404;-76
2024/01/18 11:17:52;;;;;;;9.98;3.72;;;2.80;99.90;;;;;;5084815;28;20051;-75
2024/01/18 11:20:18;;;;;;;5.32;3.13;;;2.70;99.90;;;;;;5085872;28;20052;-76
2024/01/18 11:22:47;;;;;;;9.25;3.00;;;2.70;99.90;;;;;;5078092;28;20051;-76
2024/01/18 11:25:19;;;;;;;9.65;2.50;;;2.70;99.90;;;;;;5075063;28;20080;-76
2024/01/18 11:27:45;;;;;;;2.58;1.83;;;2.60;99.90;;;;;;5077923;28;20036;-76
2024/01/18 11:30:32;;;;;;;4.75;1.85;;;2.60;99.90;;;;;;5082753;28;20056;-76
2024/01/18 11:32:58;;;;;;;5.93;2.53;;;2.50;99.90;;;;;;5078949;28;20046;-76
2024/01/18 11:35:24;;;;;;;9.90;2.45;;;2.40;99.90;;;;;;5078118;28;20048;-76
2024/01/18 11:37:50;;;;;;;3.70;1.48;;;2.40;99.90;;;;;;5074206;28;20132;-76
2024/01/18 11:40:21;;;;;;;3.25;1.90;;;2.50;99.90;;;;;;5081060;28;20056;-76
2024/01/18 11:42:46;;;;;;;3.53;1.80;;;2.60;99.90;;;;;;5069623;28;20109;-76
2024/01/18 11:45:18;;;;;;;8.55;1.98;;;2.70;99.90;;;;;;5050532;28;20049;-76
2024/01/18 11:47:44;;;;;;;6.80;1.98;;;2.80;99.90;;;;;;5078692;28;20036;-76
2024/01/18 11:50:11;;;;;;;6.60;2.10;;;2.90;99.90;;;;;;5075432;28;20051;-76
2024/01/18 11:52:41;;;;;;;3.67;1.90;;;3.00;99.90;;;;;;5075556;28;20139;-76
2024/01/18 11:55:08;;;;;;;10.48;2.05;;;3.00;99.90;;;;;;5055159;28;20040;-76
2024/01/18 11:57:33;;;;;;;5.22;1.88;;;3.10;99.90;;;;;;5069740;28;20082;-76
2024/01/18 12:00:00;;;;;;;5.13;1.80;;;3.10;99.90;;;;;;5076051;28;20036;-76
2024/01/18 12:02:28;;;;;;;3.75;1.75;;;3.10;99.90;;;;;;5076436;28;20131;-76
2024/01/18 12:04:55;;;;;;;3.33;2.10;;;3.10;99.90;;;;;;5070210;28;20056;-76
2024/01/18 12:07:21;;;;;;;9.10;2.70;;;3.10;99.90;;;;;;5078540;28;20134;-76
2024/01/18 12:09:47;;;;;;;14.85;3.28;;;3.00;99.90;;;;;;5076592;28;20059;-76
2024/01/18 12:12:13;;;;;;;7.38;2.95;;;2.90;99.90;;;;;;5085976;28;20044;-76
2024/01/18 12:14:41;;;;;;;8.70;2.83;;;2.80;99.90;;;;;;5077475;28;20047;-76
2024/01/18 12:17:08;;;;;;;14.15;2.80;;;2.80;99.90;;;;;;5065408;28;20090;-76
2024/01/18 12:19:43;;;;;;;9.65;3.20;;;2.70;99.90;;;;;;5076196;28;20123;-76
2024/01/18 12:22:17;;;;;;;9.05;3.35;;;2.80;99.90;;;;;;5070808;28;20607;-76
2024/01/18 12:24:44;;;;;;;6.18;2.80;;;2.80;99.90;;;;;;5075455;28;20051;-76
2024/01/18 12:27:10;;;;;;;7.25;3.35;;;2.90;99.90;;;;;;5078027;28;20328;-76
2024/01/18 12:29:38;;;;;;;8.43;3.00;;;2.90;99.90;;;;;;5075530;28;20055;-76
2024/01/18 12:32:04;;;;;;;11.97;3.37;;;3.00;99.90;;;;;;5073308;28;20563;-76
2024/01/18 12:34:32;;;;;;;8.80;3.22;;;3.00;99.90;;;;;;5077685;28;20043;-76
2024/01/18 12:36:58;;;;;;;4.20;2.35;;;3.10;99.90;;;;;;5078995;28;20055;-76